Terminal Aerodrome Forecast
Issued by NWS

Home | Current Version | Previous Version | Text Only | Print | Product List | Glossary On
Versions: 1 2 3 4 5 6 7 8 9 10 11 12 13 14 15 16 17 18 19 20
382
FTUS43 KDLH 222110 AAA
TAFBRD
TAF AMD
KBRD 222110Z 2221/2318 14004KT P6SM BKN019 OVC045
     FM230000 12005KT 4SM -SN BKN020 OVC040
     FM230200 11005KT 1 1/2SM -SN OVC010
      TEMPO 2304/2308 3/4SM -SN OVC010
     FM231200 VRB03KT P6SM OVC008
     FM231600 31007KT P6SM BKN045=

USA.gov is the U.S. government's official web portal to all federal, state and local government web resources and services.